Terminal Aerodrome Forecast
Issued by NWS

Home | Current Version | Previous Version | Text Only | Print | Product List | Glossary On
Versions: 1 2 3 4 5 6 7 8 9 10 11 12 13
000
FTUS45 KREV 041126
TAFMMH
TAF
KMMH 041126Z 0412/0512 VRB04KT P6SM FEW110 BKN180
     FM041700 10008KT P6SM FEW080 BKN120
     FM042000 16010KT P6SM VCTS SCT070CB BKN120
     FM050100 29009G16KT P6SM VCSH SCT050 BKN090
     FM050400 32007KT P6SM SCT070 BKN150=

USA.gov is the U.S. government's official web portal to all federal, state and local government web resources and services.